createdAt,value
2019-04-10T00:01:23.689Z,97421.23
2019-04-10T00:03:55.320Z,97425.16
2019-04-10T00:06:27.893Z,97418.98
2019-04-10T00:08:59.653Z,97421.23
2019-04-10T00:11:32.335Z,97420.03
2019-04-10T00:14:04.156Z,97425.80
2019-04-10T00:16:36.167Z,97419.20
2019-04-10T00:19:08.735Z,97414.62
2019-04-10T00:21:40.455Z,97408.42
2019-04-10T00:24:12.026Z,97414.34
2019-04-10T00:26:43.612Z,97415.53
2019-04-10T00:29:16.138Z,97414.66
2019-04-10T00:31:48.702Z,97422.73
2019-04-10T00:34:21.231Z,97419.38
2019-04-10T00:36:53.352Z,97421.86
2019-04-10T00:39:24.955Z,97426.16
2019-04-10T00:41:56.811Z,97425.40
2019-04-10T00:44:28.431Z,97429.20
2019-04-10T00:47:00.232Z,97430.45
2019-04-10T00:49:33.525Z,97435.30
2019-04-10T00:52:06.016Z,97437.05
2019-04-10T00:54:37.703Z,97433.23
2019-04-10T00:57:09.484Z,97437.09
2019-04-10T00:59:42.076Z,97433.13
2019-04-10T01:02:13.783Z,97437.28
2019-04-10T01:04:45.398Z,97429.36
2019-04-10T01:07:16.994Z,97434.81
2019-04-10T01:09:48.575Z,97433.13
2019-04-10T01:12:20.167Z,97434.20
2019-04-10T01:14:51.724Z,97429.75
2019-04-10T01:17:24.285Z,97420.38
2019-04-10T01:19:56.490Z,97421.00
2019-04-10T01:22:28.204Z,97415.66
2019-04-10T01:24:59.891Z,97414.11
2019-04-10T01:27:31.977Z,97417.33
2019-04-10T01:30:04.273Z,97418.13
2019-04-10T01:32:37.613Z,97413.36
2019-04-10T01:35:09.942Z,97413.59
2019-04-10T01:37:51.457Z,97409.95
2019-04-10T01:40:15.016Z,97415.86
2019-04-10T01:42:59.964Z,97407.53
2019-04-10T01:45:19.849Z,97403.49
2019-04-10T01:47:51.475Z,97404.11
2019-04-10T01:50:23.234Z,97404.72
2019-04-10T01:52:55.525Z,97402.80
2019-04-10T01:55:30.267Z,97402.31
2019-04-10T01:58:03.036Z,97399.83
2019-04-10T02:00:35.692Z,97403.42
2019-04-10T02:03:07.304Z,97401.27
2019-04-10T02:05:38.940Z,97392.61
2019-04-10T02:08:13.554Z,97392.13
2019-04-10T02:10:44.670Z,97393.55
2019-04-10T02:13:17.158Z,97393.55
2019-04-10T02:15:48.841Z,97387.08
2019-04-10T02:18:21.378Z,97384.34
2019-04-10T02:20:54.194Z,97384.09
2019-04-10T02:23:26.081Z,97379.48
2019-04-10T02:25:57.696Z,97380.17
2019-04-10T02:28:29.275Z,97371.77
2019-04-10T02:31:02.377Z,97373.06
2019-04-10T02:33:35.616Z,97371.77
2019-04-10T02:36:08.490Z,97371.53
2019-04-10T02:38:54.530Z,97368.24
2019-04-10T02:41:14.135Z,97364.27
2019-04-10T02:43:47.327Z,97366.31
2019-04-10T02:46:19.669Z,97365.71
2019-04-10T02:48:51.962Z,97364.53
2019-04-10T02:51:25.541Z,97367.98
2019-04-10T02:53:57.965Z,97364.77
2019-04-10T02:56:30.811Z,97364.20
2019-04-10T02:59:04.988Z,97363.23
2019-04-10T03:01:37.897Z,97368.20
2019-04-10T03:04:11.386Z,97359.44
2019-04-10T03:06:43.067Z,97367.45
2019-04-10T03:09:32.195Z,97371.84
2019-04-10T03:11:47.998Z,97363.28
2019-04-10T03:14:21.035Z,97365.33
2019-04-10T03:16:53.847Z,97356.89
2019-04-10T03:19:25.579Z,97363.78
2019-04-10T03:21:57.662Z,97369.69
2019-04-10T03:24:29.508Z,97368.50
2019-04-10T03:27:01.743Z,97362.22
2019-04-10T03:29:33.363Z,97372.30
2019-04-10T03:32:23.246Z,97370.41
2019-04-10T03:34:59.107Z,97371.48
2019-04-10T03:37:30.711Z,97373.16
2019-04-10T03:40:03.489Z,97372.22
2019-04-10T03:42:35.099Z,97365.45
2019-04-10T03:45:07.569Z,97371.03
2019-04-10T03:47:39.725Z,97361.17
2019-04-10T03:50:11.684Z,97367.20
2019-04-10T03:52:43.336Z,97366.02
2019-04-10T03:55:16.731Z,97372.47
2019-04-10T03:57:49.104Z,97369.98
2019-04-10T04:00:21.095Z,97370.55
2019-04-10T04:02:54.032Z,97374.58
2019-04-10T04:05:26.617Z,97377.27
2019-04-10T04:08:01.201Z,97367.56
2019-04-10T04:10:32.981Z,97377.14
2019-04-10T04:13:06.040Z,97374.38
2019-04-10T04:15:37.990Z,97380.05
2019-04-10T04:18:09.552Z,97378.49
2019-04-10T04:20:41.297Z,97371.84
2019-04-10T04:23:13.774Z,97373.02
2019-04-10T04:25:46.234Z,97374.83
2019-04-10T04:28:18.908Z,97377.00
2019-04-10T04:30:52.340Z,97383.64
2019-04-10T04:33:23.864Z,97379.48
2019-04-10T04:35:55.476Z,97379.72
2019-04-10T04:38:27.700Z,97385.30
2019-04-10T04:41:00.448Z,97388.24
2019-04-10T04:43:32.742Z,97390.27
2019-04-10T04:46:04.403Z,97391.83
2019-04-10T04:48:36.894Z,97392.52
2019-04-10T04:51:09.007Z,97397.61
2019-04-10T04:53:40.655Z,97397.37
2019-04-10T04:56:13.359Z,97397.73
2019-04-10T04:58:45.626Z,97400.71
2019-04-10T05:01:18.916Z,97404.38
2019-04-10T05:03:51.208Z,97403.20
2019-04-10T05:06:24.846Z,97416.23
2019-04-10T05:08:56.887Z,97413.18
2019-04-10T05:11:28.842Z,97416.00
2019-04-10T05:14:00.891Z,97416.36
2019-04-10T05:16:32.982Z,97424.52
2019-04-10T05:19:04.563Z,97425.53
2019-04-10T05:21:37.287Z,97425.16
2019-04-10T05:24:08.973Z,97424.47
2019-04-10T05:26:40.614Z,97423.66
2019-04-10T05:29:13.170Z,97421.38
2019-04-10T05:31:44.859Z,97425.40
2019-04-10T05:34:16.488Z,97428.20
2019-04-10T05:36:49.052Z,97427.27
2019-04-10T05:39:20.802Z,97430.69
2019-04-10T05:41:52.395Z,97436.03
2019-04-10T05:44:24.019Z,97444.55
2019-04-10T05:46:55.605Z,97437.66
2019-04-10T05:49:27.251Z,97439.89
2019-04-10T05:51:58.871Z,97436.29
2019-04-10T05:54:31.120Z,97439.59
2019-04-10T05:57:04.001Z,97442.83
2019-04-10T05:59:36.854Z,97437.73
2019-04-10T06:02:09.406Z,97444.18
2019-04-10T06:04:41.248Z,97443.09
2019-04-10T06:07:12.880Z,97442.00
2019-04-10T06:09:54.040Z,97452.80
2019-04-10T06:12:18.155Z,97443.55
2019-04-10T06:14:52.517Z,97442.08
2019-04-10T06:17:24.657Z,97453.09
2019-04-10T06:19:56.695Z,97445.50
2019-04-10T06:22:30.237Z,97447.27
2019-04-10T06:25:03.916Z,97442.98
2019-04-10T06:27:36.737Z,97442.13
2019-04-10T06:30:09.970Z,97446.40
2019-04-10T06:32:41.580Z,97442.11
2019-04-10T06:35:13.617Z,97442.69
2019-04-10T06:37:46.290Z,97439.47
2019-04-10T06:40:21.257Z,97443.50
2019-04-10T06:42:53.942Z,97447.16
2019-04-10T06:45:24.598Z,97438.22
2019-04-10T06:47:56.163Z,97439.95
2019-04-10T06:50:29.439Z,97440.34
2019-04-10T06:53:01.165Z,97447.95
2019-04-10T06:55:32.760Z,97446.34
2019-04-10T06:58:04.372Z,97450.70
2019-04-10T07:00:36.946Z,97455.41
2019-04-10T07:03:08.707Z,97456.66
2019-04-10T07:05:49.689Z,97456.67
2019-04-10T07:08:19.048Z,97449.55
2019-04-10T07:10:55.419Z,97453.64
2019-04-10T07:13:21.287Z,97461.95
2019-04-10T07:15:56.325Z,97463.34
2019-04-10T07:18:26.425Z,97460.03
2019-04-10T07:21:01.070Z,97457.36
2019-04-10T07:23:32.354Z,97452.67
2019-04-10T07:26:06.019Z,97457.73
2019-04-10T07:28:39.116Z,97459.48
2019-04-10T07:31:11.652Z,97463.60
2019-04-10T07:33:47.138Z,97463.95
2019-04-10T07:36:16.644Z,97469.28
2019-04-10T07:38:48.914Z,97466.62
2019-04-10T07:41:23.076Z,97463.82
2019-04-10T07:43:55.841Z,97463.24
2019-04-10T07:46:28.211Z,97471.27
2019-04-10T07:49:00.701Z,97472.09
2019-04-10T07:51:34.099Z,97467.26
2019-04-10T07:54:06.126Z,97467.75
2019-04-10T07:56:37.781Z,97472.45
2019-04-10T07:59:09.381Z,97468.98
2019-04-10T08:01:41.976Z,97478.64
2019-04-10T08:04:14.888Z,97473.18
2019-04-10T08:06:46.874Z,97471.32
2019-04-10T08:09:18.887Z,97474.70
2019-04-10T08:11:50.991Z,97475.06
2019-04-10T08:14:23.723Z,97478.41
2019-04-10T08:16:55.436Z,97480.48
2019-04-10T08:19:28.176Z,97483.66
2019-04-10T08:22:01.203Z,97481.53
2019-04-10T08:24:33.083Z,97488.02
2019-04-10T08:27:05.874Z,97488.23
2019-04-10T08:29:39.336Z,97486.52
2019-04-10T08:32:11.876Z,97486.02
2019-04-10T08:34:44.275Z,97488.59
2019-04-10T08:37:18.757Z,97494.59
2019-04-10T08:39:51.405Z,97488.59
2019-04-10T08:42:24.469Z,97491.19
2019-04-10T08:44:56.405Z,97493.12
2019-04-10T08:47:28.047Z,97494.30
2019-04-10T08:49:59.709Z,97504.77
2019-04-10T08:52:32.507Z,97490.29
2019-04-10T08:55:04.221Z,97491.54
2019-04-10T08:57:38.171Z,97493.54
2019-04-10T09:00:12.206Z,97494.77
2019-04-10T09:02:44.445Z,97495.74
2019-04-10T09:05:17.956Z,97493.03
2019-04-10T09:07:50.553Z,97497.43
2019-04-10T09:10:22.649Z,97499.31
2019-04-10T09:12:54.571Z,97495.58
2019-04-10T09:15:27.743Z,97504.86
2019-04-10T09:17:59.812Z,97501.95
2019-04-10T09:20:31.422Z,97504.29
2019-04-10T09:23:29.777Z,97511.19
2019-04-10T09:25:37.496Z,97511.63
2019-04-10T09:28:10.285Z,97510.17
2019-04-10T09:30:42.763Z,97509.14
2019-04-10T09:33:20.980Z,97507.17
2019-04-10T09:35:48.861Z,97512.75
2019-04-10T09:38:20.951Z,97508.95
2019-04-10T09:40:53.303Z,97516.19
2019-04-10T09:43:25.371Z,97512.70
2019-04-10T09:45:56.967Z,97507.75
2019-04-10T09:48:28.565Z,97511.01
2019-04-10T09:51:00.314Z,97518.59
2019-04-10T09:53:32.937Z,97523.77
2019-04-10T09:56:05.257Z,97513.20
2019-04-10T09:58:36.855Z,97510.17
2019-04-10T10:01:14.760Z,97516.80
2019-04-10T10:03:46.561Z,97512.86
2019-04-10T10:06:27.167Z,97510.76
2019-04-10T10:08:52.304Z,97515.08
2019-04-10T10:11:24.589Z,97512.77
2019-04-10T10:13:56.428Z,97503.22
2019-04-10T10:16:30.165Z,97507.84
2019-04-10T10:19:01.646Z,97511.55
2019-04-10T10:21:33.212Z,97515.41
2019-04-10T10:24:05.004Z,97509.34
2019-04-10T10:26:36.607Z,97506.19
2019-04-10T10:29:09.046Z,97510.90
2019-04-10T10:31:40.761Z,97509.14
2019-04-10T10:34:12.399Z,97513.17
2019-04-10T10:36:47.372Z,97514.95
2019-04-10T10:39:21.086Z,97519.02
2019-04-10T10:41:54.434Z,97516.50
2019-04-10T10:44:26.044Z,97524.92
2019-04-10T10:46:57.988Z,97522.73
2019-04-10T10:49:30.632Z,97519.08
2019-04-10T10:52:03.578Z,97515.39
2019-04-10T10:54:35.293Z,97513.28
2019-04-10T10:57:07.088Z,97515.89
2019-04-10T10:59:39.718Z,97517.44
2019-04-10T11:02:12.459Z,97513.94
2019-04-10T11:04:45.287Z,97514.05
2019-04-10T11:07:18.713Z,97508.38
2019-04-10T11:09:52.904Z,97511.84
2019-04-10T11:12:24.591Z,97510.48
2019-04-10T11:14:56.319Z,97510.50
2019-04-10T11:17:28.294Z,97505.45
2019-04-10T11:20:02.284Z,97504.70
2019-04-10T11:22:35.447Z,97510.62
2019-04-10T11:25:08.053Z,97510.32
2019-04-10T11:27:41.859Z,97518.33
2019-04-10T11:30:13.962Z,97513.77
2019-04-10T11:32:46.278Z,97510.82
2019-04-10T11:35:19.061Z,97509.20
2019-04-10T11:37:53.599Z,97507.83
2019-04-10T11:40:26.476Z,97511.41
2019-04-10T11:42:58.166Z,97510.59
2019-04-10T11:45:40.698Z,97509.74
2019-04-10T11:48:05.989Z,97509.81
2019-04-10T11:50:38.604Z,97513.38
2019-04-10T11:53:10.606Z,97510.97
2019-04-10T11:55:47.801Z,97508.58
2019-04-10T11:58:17.782Z,97504.89
2019-04-10T12:00:52.441Z,97506.65
2019-04-10T12:03:24.632Z,97515.09
2019-04-10T12:05:57.719Z,97516.71
2019-04-10T12:08:50.330Z,97513.61
2019-04-10T12:13:34.536Z,97518.37
2019-04-10T12:16:07.073Z,97528.33
2019-04-10T12:18:38.826Z,97522.89
2019-04-10T12:21:10.449Z,97520.17
2019-04-10T12:23:43.131Z,97524.64
2019-04-10T12:26:15.838Z,97521.30
2019-04-10T12:28:47.593Z,97519.02
2019-04-10T12:31:19.744Z,97518.06
2019-04-10T12:33:51.422Z,97521.84
2019-04-10T12:36:23.022Z,97529.04
2019-04-10T12:38:54.650Z,97527.92
2019-04-10T12:41:26.242Z,97525.44
2019-04-10T12:43:59.040Z,97533.25
2019-04-10T12:46:30.742Z,97526.88
2019-04-10T12:49:03.723Z,97534.46
2019-04-10T12:51:36.301Z,97529.85
2019-04-10T12:54:08.023Z,97526.02
2019-04-10T12:56:40.165Z,97535.89
2019-04-10T12:59:12.059Z,97526.48
2019-04-10T13:01:44.798Z,97531.72
2019-04-10T13:04:17.936Z,97533.27
2019-04-10T13:06:52.345Z,97531.03
2019-04-10T13:09:24.132Z,97539.30
2019-04-10T13:11:56.524Z,97529.81
2019-04-10T13:14:28.614Z,97534.81
2019-04-10T13:17:00.597Z,97528.95
2019-04-10T13:19:34.164Z,97527.53
2019-04-10T13:22:05.616Z,97526.69
2019-04-10T13:24:37.539Z,97528.03
2019-04-10T13:27:10.371Z,97531.19
2019-04-10T13:29:42.657Z,97530.00
2019-04-10T13:32:14.385Z,97525.15
2019-04-10T13:34:45.995Z,97529.89
2019-04-10T13:37:17.995Z,97522.98
2019-04-10T13:39:49.672Z,97530.16
2019-04-10T13:42:23.141Z,97531.95
2019-04-10T13:44:55.743Z,97528.23
2019-04-10T13:47:29.120Z,97526.21
2019-04-10T13:50:00.850Z,97529.58
2019-04-10T13:52:33.003Z,97525.71
2019-04-10T13:55:05.264Z,97532.80
2019-04-10T13:57:36.968Z,97527.77
2019-04-10T14:00:13.440Z,97529.35
2019-04-10T14:02:45.762Z,97524.05
2019-04-10T14:05:17.991Z,97525.48
2019-04-10T14:07:49.564Z,97530.20
2019-04-10T14:10:21.575Z,97521.22
2019-04-10T14:12:53.559Z,97530.78
2019-04-10T14:15:30.143Z,97531.89
2019-04-10T14:18:01.953Z,97534.52
2019-04-10T14:20:33.737Z,97536.04
2019-04-10T14:23:18.464Z,97531.03
2019-04-10T14:26:02.303Z,97530.34
2019-04-10T14:28:34.069Z,97527.39
2019-04-10T14:31:11.725Z,97527.01
2019-04-10T14:33:43.338Z,97532.81
2019-04-10T14:36:15.902Z,97540.20
2019-04-10T14:38:47.611Z,97542.23
2019-04-10T14:41:20.041Z,97539.16
2019-04-10T14:43:51.701Z,97539.31
2019-04-10T14:46:24.224Z,97538.86
2019-04-10T14:48:56.996Z,97545.79
2019-04-10T14:51:28.613Z,97541.87
2019-04-10T14:54:00.212Z,97547.88
2019-04-10T14:56:32.454Z,97547.46
2019-04-10T14:59:04.173Z,97549.86
2019-04-10T15:01:36.057Z,97548.52
2019-04-10T15:04:08.745Z,97550.48
2019-04-10T15:06:41.645Z,97556.20
2019-04-10T15:09:25.849Z,97551.23
2019-04-10T15:11:55.608Z,97555.53
2019-04-10T15:14:27.842Z,97556.55
2019-04-10T15:17:04.263Z,97551.84
2019-04-10T15:19:32.979Z,97553.95
2019-04-10T15:22:04.584Z,97560.27
2019-04-10T15:24:36.235Z,97556.31
2019-04-10T15:27:08.927Z,97566.66
2019-04-10T15:29:40.914Z,97560.95
2019-04-10T15:32:12.793Z,97564.59
2019-04-10T15:34:44.441Z,97561.45
2019-04-10T15:37:17.120Z,97565.34
2019-04-10T15:39:49.718Z,97570.81
2019-04-10T15:42:21.777Z,97569.36
2019-04-10T15:44:54.468Z,97573.65
2019-04-10T15:47:27.031Z,97573.06
2019-04-10T15:49:59.875Z,97575.17
2019-04-10T15:52:31.642Z,97579.20
2019-04-10T15:55:03.702Z,97575.56
2019-04-10T15:57:46.994Z,97577.08
2019-04-10T16:00:10.949Z,97581.34
2019-04-10T16:02:42.971Z,97585.97
2019-04-10T16:05:15.426Z,97582.35
2019-04-10T16:07:47.429Z,97586.55
2019-04-10T16:10:37.180Z,97587.63
2019-04-10T16:13:32.552Z,97584.07
2019-04-10T16:16:19.434Z,97583.40
2019-04-10T16:18:52.842Z,97589.92
2019-04-10T16:21:24.776Z,97589.14
2019-04-10T16:24:01.052Z,97585.20
2019-04-10T16:26:33.584Z,97586.41
2019-04-10T16:29:05.475Z,97590.98
2019-04-10T16:31:37.640Z,97597.70
2019-04-10T16:34:09.427Z,97598.76
2019-04-10T16:36:41.650Z,97604.30
2019-04-10T16:39:15.835Z,97600.28
2019-04-10T16:41:50.254Z,97600.25
2019-04-10T16:44:22.011Z,97605.98
2019-04-10T16:46:55.890Z,97598.23
2019-04-10T16:49:27.483Z,97607.95
2019-04-10T16:51:59.134Z,97611.39
2019-04-10T16:54:31.296Z,97616.47
2019-04-10T16:57:02.992Z,97620.80
2019-04-10T16:59:34.562Z,97619.05
2019-04-10T17:02:07.223Z,97624.77
2019-04-10T17:04:39.633Z,97624.20
2019-04-10T17:07:11.595Z,97625.76
2019-04-10T17:09:43.894Z,97629.48
2019-04-10T17:12:17.573Z,97626.93
2019-04-10T17:14:49.467Z,97634.88
2019-04-10T17:17:21.861Z,97634.03
2019-04-10T17:19:57.199Z,97636.72
2019-04-10T17:22:35.757Z,97640.91
2019-04-10T17:25:00.509Z,97644.39
2019-04-10T17:27:32.182Z,97639.92
2019-04-10T17:30:05.281Z,97646.48
2019-04-10T17:32:38.669Z,97650.50
2019-04-10T17:35:11.885Z,97648.62
2019-04-10T17:37:45.621Z,97649.11
2019-04-10T17:40:31.070Z,97649.47
2019-04-10T17:42:52.712Z,97649.94
2019-04-10T17:45:25.844Z,97648.44
2019-04-10T17:48:17.795Z,97657.28
2019-04-10T17:50:49.873Z,97657.42
2019-04-10T17:53:23.047Z,97666.02
2019-04-10T17:55:55.944Z,97667.89
2019-04-10T17:58:27.649Z,97671.02
2019-04-10T18:01:01.855Z,97663.55
2019-04-10T18:03:43.008Z,97669.41
2019-04-10T18:06:06.980Z,97672.48
2019-04-10T18:08:38.624Z,97666.48
2019-04-10T18:11:10.261Z,97665.88
2019-04-10T18:13:42.766Z,97671.05
2019-04-10T18:16:14.833Z,97676.58
2019-04-10T18:18:49.747Z,97674.92
2019-04-10T18:21:22.487Z,97678.65
2019-04-10T18:23:54.049Z,97687.48
2019-04-10T18:26:25.759Z,97688.11
2019-04-10T18:28:58.244Z,97694.80
2019-04-10T18:31:31.035Z,97696.39
2019-04-10T18:34:03.884Z,97702.03
2019-04-10T18:36:36.335Z,97705.36
2019-04-10T18:39:13.952Z,97704.05
2019-04-10T18:41:46.575Z,97708.37
2019-04-10T18:44:18.403Z,97712.54
2019-04-10T18:46:50.035Z,97719.45
2019-04-10T18:49:21.655Z,97719.08
2019-04-10T18:51:54.282Z,97728.26
2019-04-10T18:54:26.975Z,97725.29
2019-04-10T18:56:59.712Z,97728.45
2019-04-10T19:00:02.330Z,97727.81
2019-04-10T19:03:13.114Z,97731.88
2019-04-10T19:05:48.085Z,97740.97
2019-04-10T19:08:19.910Z,97738.21
2019-04-10T19:10:51.738Z,97736.03
2019-04-10T19:13:24.941Z,97740.23
2019-04-10T19:15:57.276Z,97742.66
2019-04-10T19:18:29.861Z,97750.25
2019-04-10T19:21:01.568Z,97750.58
2019-04-10T19:23:33.235Z,97751.08
2019-04-10T19:26:08.481Z,97751.70
2019-04-10T19:28:41.837Z,97755.69
2019-04-10T19:31:19.448Z,97756.28
2019-04-10T19:33:49.139Z,97762.73
2019-04-10T19:36:20.752Z,97766.80
2019-04-10T19:38:52.491Z,97753.20
2019-04-10T19:41:32.783Z,97769.52
2019-04-10T19:43:59.714Z,97765.09
2019-04-10T19:46:31.448Z,97769.52
2019-04-10T19:49:03.920Z,97771.91
2019-04-10T19:51:36.390Z,97774.90
2019-04-10T19:54:09.638Z,97773.98
2019-04-10T19:56:43.146Z,97773.66
2019-04-10T19:59:14.752Z,97778.90
2019-04-10T20:01:46.543Z,97778.57
2019-04-10T20:04:18.825Z,97781.13
2019-04-10T20:06:50.425Z,97787.86
2019-04-10T20:09:22.233Z,97798.57
2019-04-10T20:11:56.205Z,97793.48
2019-04-10T20:14:28.365Z,97796.19
2019-04-10T20:17:00.127Z,97802.27
2019-04-10T20:19:32.775Z,97799.34
2019-04-10T20:22:04.592Z,97799.84
2019-04-10T20:24:36.745Z,97798.60
2019-04-10T20:27:08.398Z,97804.58
2019-04-10T20:29:41.305Z,97801.47
2019-04-10T20:32:14.099Z,97805.81
2019-04-10T20:34:45.910Z,97803.36
2019-04-10T20:37:18.564Z,97807.18
2019-04-10T20:39:51.722Z,97812.53
2019-04-10T20:42:24.033Z,97808.66
2019-04-10T20:44:56.868Z,97814.05
2019-04-10T20:47:28.509Z,97817.84
2019-04-10T20:50:00.243Z,97824.38
2019-04-10T20:52:32.544Z,97829.03
2019-04-10T20:55:05.585Z,97832.86
2019-04-10T20:57:37.526Z,97837.63
2019-04-10T21:00:11.456Z,97827.19
2019-04-10T21:02:43.150Z,97833.11
2019-04-10T21:05:16.341Z,97835.59
2019-04-10T21:07:48.167Z,97829.09
2019-04-10T21:10:19.772Z,97836.67
2019-04-10T21:12:52.469Z,97824.30
2019-04-10T21:15:24.234Z,97827.91
2019-04-10T21:17:56.963Z,97828.42
2019-04-10T21:20:28.808Z,97824.36
2019-04-10T21:23:01.378Z,97828.97
2019-04-10T21:25:33.086Z,97837.16
2019-04-10T21:28:04.878Z,97830.12
2019-04-10T21:31:07.673Z,97830.69
2019-04-10T21:34:01.403Z,97837.21
2019-04-10T21:36:34.971Z,97829.66
2019-04-10T21:39:09.503Z,97833.57
2019-04-10T21:41:42.098Z,97836.73
2019-04-10T21:44:14.787Z,97840.56
2019-04-10T21:46:46.697Z,97839.75
2019-04-10T21:49:18.274Z,97838.88
2019-04-10T21:51:49.918Z,97842.19
2019-04-10T21:54:22.410Z,97841.81
2019-04-10T21:56:55.505Z,97848.92
2019-04-10T21:59:27.249Z,97845.57
2019-04-10T22:01:59.332Z,97856.52
2019-04-10T22:04:31.064Z,97857.49
2019-04-10T22:07:22.357Z,97851.11
2019-04-10T22:10:09.813Z,97858.64
2019-04-10T22:12:46.940Z,97860.34
2019-04-10T22:15:35.885Z,97860.58
2019-04-10T22:18:07.461Z,97862.14
2019-04-10T22:20:39.573Z,97867.51
2019-04-10T22:23:11.706Z,97867.19
2019-04-10T22:25:43.769Z,97866.73
2019-04-10T22:28:15.444Z,97866.94
2019-04-10T22:30:48.317Z,97870.44
2019-04-10T22:33:20.269Z,97867.47
2019-04-10T22:35:52.542Z,97864.59
2019-04-10T22:38:25.039Z,97862.98
2019-04-10T22:40:56.671Z,97860.38
2019-04-10T22:43:28.275Z,97870.69
2019-04-10T22:46:00.478Z,97869.22
2019-04-10T22:48:33.251Z,97872.80
2019-04-10T22:51:07.949Z,97868.28
2019-04-10T22:53:39.525Z,97878.51
2019-04-10T22:56:11.238Z,97876.41
2019-04-10T22:58:44.089Z,97882.99
2019-04-10T23:01:15.930Z,97875.21
2019-04-10T23:03:47.646Z,97887.20
2019-04-10T23:06:19.204Z,97888.30
2019-04-10T23:08:51.698Z,97889.04
2019-04-10T23:11:33.415Z,97896.30
2019-04-10T23:13:56.708Z,97894.54
2019-04-10T23:16:28.452Z,97902.34
2019-04-10T23:19:00.088Z,97889.06
2019-04-10T23:21:32.438Z,97901.39
2019-04-10T23:24:05.513Z,97907.70
2019-04-10T23:26:37.508Z,97897.31
2019-04-10T23:29:09.310Z,97896.78
2019-04-10T23:31:43.901Z,97892.80
2019-04-10T23:34:16.614Z,97897.90
2019-04-10T23:36:48.673Z,97901.46
2019-04-10T23:39:20.306Z,97903.88
2019-04-10T23:41:52.451Z,97901.38
2019-04-10T23:44:24.869Z,97904.44
2019-04-10T23:46:57.783Z,97908.38
2019-04-10T23:49:29.849Z,97903.14
2019-04-10T23:52:01.537Z,97900.59
2019-04-10T23:54:33.378Z,97894.91
2019-04-10T23:57:05.226Z,97901.80
2019-04-10T23:59:37.134Z,97908.06
